Main page
Satellite images 15-day forecastsClimateMarine weather Cyclones Lightning AirportsFAQ Newsletter About
Weather : Europe Africa North America South America Asia Australia-Oceania Others
Languages Contact

Singapore, Singapore

Military airbase Paya Lebar

latitude: 01-22N, longitude: 103-55E, elevation: 18 m


METAR: WSAP 210000Z 02002KT 9999 FEW018TCU BKN300 26/24 Q1008
TAF: WSAP 202300Z 2100/2206 34008KT 9999 FEW018CB SCT020 TEMPO 2105/2109 3000 TSRA FEW012CB BKN015

Time: 08:24 (00:24 UTC)

Current weather observation

The report was made 24 minutes ago, at 00:00 UTC
Wind 2 kt from the North/Northeast
Temperature 26°C
Humidity 89%
Pressure 1008 hPa
Visibility 10 km or more
Few clouds at a height of 1800 ft, Towering cumulus.
Broken clouds at a height of 30000 ft

Change units

Forecast

The report was made 1 hour and 24 minutes ago, at 23:00 UTC
Forecast valid from 21 at 00 UTC to 22 at 06 UTC
Wind 8 kt from the North/Northwest
Visibility 10 km or more
Few clouds at a height of 1800 ft, Cumulonimbus.
Scattered clouds at a height of 2000 ft
Temporary
from 21 at 05 UTC to 21 at 09 UTC
Visibility: 3000 m
Few clouds at a height of 1200 ft, Cumulonimbus.
Broken clouds at a height of 1500 ft
thunderstorm rain
The information on this site is subject to a disclaimer
Weather : Europe Africa North America South America Asia Australia-Oceania Others
Satellite images 15-day forecastsClimateMarine weather Cyclones Lightning AirportsFAQ Languages Contact Newsletter About